createdAt,value
2024-02-29T00:00:15.617Z,10.90
2024-02-29T00:02:42.846Z,8.67
2024-02-29T00:05:13.725Z,9.30
2024-02-29T00:07:41.559Z,11.30
2024-02-29T00:10:10.365Z,9.17
2024-02-29T00:12:37.954Z,6.80
2024-02-29T00:15:05.603Z,7.80
2024-02-29T00:17:33.030Z,8.10
2024-02-29T00:20:00.525Z,7.83
2024-02-29T00:22:27.629Z,10.13
2024-02-29T00:24:54.762Z,7.57
2024-02-29T00:27:23.298Z,8.17
2024-02-29T00:29:50.301Z,6.80
2024-02-29T00:32:17.238Z,11.57
2024-02-29T00:34:44.231Z,9.33
2024-02-29T00:37:11.339Z,9.63
2024-02-29T00:39:38.474Z,6.97
2024-02-29T00:42:05.564Z,9.63
2024-02-29T00:44:32.543Z,6.60
2024-02-29T00:47:00.215Z,10.80
2024-02-29T00:49:27.418Z,8.07
2024-02-29T00:51:54.459Z,8.57
2024-02-29T00:54:25.999Z,13.33
2024-02-29T00:56:53.251Z,12.43
2024-02-29T00:59:20.339Z,13.03
2024-02-29T01:01:47.546Z,8.07
2024-02-29T01:04:15.502Z,9.57
2024-02-29T01:06:42.838Z,11.60
2024-02-29T01:09:10.134Z,9.23
2024-02-29T01:11:38.422Z,10.77
2024-02-29T01:14:05.773Z,8.00
2024-02-29T01:16:32.735Z,11.33
2024-02-29T01:19:02.129Z,10.80
2024-02-29T01:21:29.956Z,7.70
2024-02-29T01:23:57.009Z,6.53
2024-02-29T01:26:24.054Z,6.23
2024-02-29T01:28:51.053Z,5.90
2024-02-29T01:31:18.323Z,5.87
2024-02-29T01:33:45.387Z,10.43
2024-02-29T01:36:12.412Z,7.23
2024-02-29T01:38:39.412Z,9.50
2024-02-29T01:41:06.965Z,7.50
2024-02-29T01:43:34.087Z,11.20
2024-02-29T01:46:15.151Z,5.40
2024-02-29T01:48:42.903Z,10.30
2024-02-29T01:51:11.916Z,10.03
2024-02-29T01:53:39.247Z,9.90
2024-02-29T01:56:06.929Z,8.83
2024-02-29T01:58:35.447Z,7.97
2024-02-29T02:01:02.795Z,12.67
2024-02-29T02:03:30.418Z,5.13
2024-02-29T02:05:57.409Z,9.30
2024-02-29T02:08:29.210Z,7.40
2024-02-29T02:10:56.404Z,8.30
2024-02-29T02:13:23.406Z,6.97
2024-02-29T02:15:50.749Z,11.20
2024-02-29T02:18:17.930Z,6.40
2024-02-29T02:20:44.923Z,6.47
2024-02-29T02:23:11.967Z,10.13
2024-02-29T02:25:39.005Z,6.83
2024-02-29T02:28:06.292Z,9.13
2024-02-29T02:30:33.365Z,12.87
2024-02-29T02:33:00.751Z,13.07
2024-02-29T02:35:27.972Z,8.80
2024-02-29T02:37:55.012Z,7.03
2024-02-29T02:40:22.367Z,7.10
2024-02-29T02:42:49.460Z,5.67
2024-02-29T02:45:16.608Z,6.53
2024-02-29T02:47:44.798Z,7.07
2024-02-29T02:50:12.795Z,7.53
2024-02-29T02:52:39.808Z,9.47
2024-02-29T02:55:07.240Z,12.30
2024-02-29T02:57:34.356Z,6.60
2024-02-29T03:00:01.406Z,4.63
2024-02-29T03:02:28.552Z,12.73
2024-02-29T03:04:55.623Z,5.50
2024-02-29T03:07:23.495Z,11.30
2024-02-29T03:09:50.604Z,14.73
2024-02-29T03:12:17.688Z,8.47
2024-02-29T03:14:44.863Z,5.90
2024-02-29T03:17:11.964Z,7.83
2024-02-29T03:19:39.085Z,8.20
2024-02-29T03:22:07.538Z,9.03
2024-02-29T03:24:39.299Z,7.67
2024-02-29T03:27:06.685Z,5.77
2024-02-29T03:29:34.780Z,7.87
2024-02-29T03:32:01.980Z,9.50
2024-02-29T03:34:29.272Z,11.43
2024-02-29T03:36:56.269Z,8.33
2024-02-29T03:39:23.209Z,8.10
2024-02-29T03:41:50.170Z,12.47
2024-02-29T03:44:17.706Z,8.60
2024-02-29T03:46:44.778Z,6.40
2024-02-29T03:49:11.868Z,7.40
2024-02-29T03:51:40.495Z,7.47
2024-02-29T03:54:07.532Z,7.90
2024-02-29T03:56:34.529Z,5.83
2024-02-29T03:59:01.534Z,18.40
2024-02-29T04:01:28.659Z,11.73
2024-02-29T04:03:56.032Z,13.97
2024-02-29T04:06:23.174Z,8.27
2024-02-29T04:08:50.768Z,6.50
2024-02-29T04:11:17.871Z,6.37
2024-02-29T04:13:46.249Z,7.07
2024-02-29T04:16:13.437Z,7.87
2024-02-29T04:18:41.371Z,7.57
2024-02-29T04:21:08.414Z,7.13
2024-02-29T04:23:35.415Z,7.07
2024-02-29T04:26:05.566Z,8.00
2024-02-29T04:28:32.525Z,5.97
2024-02-29T04:30:59.561Z,6.83
2024-02-29T04:33:26.616Z,6.67
2024-02-29T04:35:53.772Z,14.43
2024-02-29T04:38:20.860Z,4.97
2024-02-29T04:40:47.888Z,12.73
2024-02-29T04:43:15.161Z,8.50
2024-02-29T04:45:42.225Z,4.53
2024-02-29T04:48:09.392Z,6.43
2024-02-29T04:50:36.369Z,7.83
2024-02-29T04:53:03.365Z,7.53
2024-02-29T04:55:31.334Z,9.20
2024-02-29T04:57:58.330Z,7.83
2024-02-29T05:00:25.486Z,14.27
2024-02-29T05:02:52.575Z,6.00
2024-02-29T05:05:19.607Z,4.27
2024-02-29T05:07:47.414Z,10.07
2024-02-29T05:10:14.637Z,7.50
2024-02-29T05:12:41.816Z,8.30
2024-02-29T05:15:09.313Z,11.23
2024-02-29T05:17:36.328Z,8.33
2024-02-29T05:20:03.937Z,8.87
2024-02-29T05:22:30.928Z,9.87
2024-02-29T05:24:59.529Z,5.53
2024-02-29T05:27:30.788Z,9.53
2024-02-29T05:29:58.929Z,9.87
2024-02-29T05:32:25.933Z,9.83
2024-02-29T05:34:52.978Z,7.93
2024-02-29T05:37:20.114Z,10.93
2024-02-29T05:39:47.576Z,12.20
2024-02-29T05:42:14.651Z,8.13
2024-02-29T05:44:41.854Z,7.20
2024-02-29T05:47:11.901Z,8.53
2024-02-29T05:49:38.884Z,10.10
2024-02-29T05:52:06.437Z,7.30
2024-02-29T05:54:33.478Z,7.50
2024-02-29T05:57:03.551Z,8.30
2024-02-29T05:59:32.905Z,10.70
2024-02-29T06:02:00.343Z,11.17
2024-02-29T06:04:27.615Z,8.13
2024-02-29T06:06:54.881Z,7.50
2024-02-29T06:09:21.907Z,7.23
2024-02-29T06:11:49.318Z,9.37
2024-02-29T06:14:16.303Z,8.07
2024-02-29T06:16:43.488Z,9.90
2024-02-29T06:19:10.628Z,4.33
2024-02-29T06:21:37.670Z,7.73
2024-02-29T06:24:04.911Z,9.33
2024-02-29T06:26:31.928Z,5.87
2024-02-29T06:28:59.046Z,10.27
2024-02-29T06:31:27.387Z,10.27
2024-02-29T06:33:54.997Z,10.63
2024-02-29T06:36:22.165Z,9.43
2024-02-29T06:38:49.325Z,7.63
2024-02-29T06:41:16.490Z,11.13
2024-02-29T06:43:43.523Z,5.57
2024-02-29T06:46:11.918Z,8.50
2024-02-29T06:48:40.435Z,15.57
2024-02-29T06:51:07.570Z,8.63
2024-02-29T06:53:34.689Z,11.97
2024-02-29T06:56:01.967Z,12.83
2024-02-29T06:58:29.364Z,13.40
2024-02-29T07:00:57.869Z,9.93
2024-02-29T07:03:24.965Z,9.23
2024-02-29T07:05:51.929Z,6.93
2024-02-29T07:08:19.050Z,14.90
2024-02-29T07:10:46.063Z,7.10
2024-02-29T07:13:13.215Z,19.07
2024-02-29T07:15:40.219Z,14.37
2024-02-29T07:18:12.419Z,11.77
2024-02-29T07:20:39.534Z,12.33
2024-02-29T07:23:06.653Z,11.60
2024-02-29T07:25:33.620Z,10.53
2024-02-29T07:28:00.947Z,12.20
2024-02-29T07:30:28.635Z,8.80
2024-02-29T07:32:56.074Z,12.27
2024-02-29T07:35:23.246Z,8.87
2024-02-29T07:37:52.996Z,10.50
2024-02-29T07:40:22.756Z,13.23
2024-02-29T07:42:50.172Z,10.60
2024-02-29T07:45:20.544Z,12.77
2024-02-29T07:47:48.565Z,8.87
2024-02-29T07:50:15.972Z,14.83
2024-02-29T07:52:42.966Z,13.07
2024-02-29T07:55:16.091Z,11.50
2024-02-29T07:57:46.439Z,21.57
2024-02-29T08:00:14.378Z,11.50
2024-02-29T08:02:44.653Z,9.83
2024-02-29T08:05:11.835Z,10.37
2024-02-29T08:07:39.277Z,9.83
2024-02-29T08:10:07.068Z,11.93
2024-02-29T08:12:34.327Z,14.77
2024-02-29T08:15:01.424Z,13.33
2024-02-29T08:17:30.112Z,17.13
2024-02-29T08:19:57.873Z,8.73
2024-02-29T08:22:26.186Z,15.03
2024-02-29T08:24:53.277Z,10.80
2024-02-29T08:27:20.370Z,14.40
2024-02-29T08:29:47.409Z,11.90
2024-02-29T08:32:16.020Z,13.73
2024-02-29T08:34:43.343Z,9.50
2024-02-29T08:37:10.437Z,7.17
2024-02-29T08:39:39.684Z,17.27
2024-02-29T08:42:07.081Z,8.03
2024-02-29T08:44:34.729Z,15.53
2024-02-29T08:47:05.271Z,7.47
2024-02-29T08:49:32.427Z,15.53
2024-02-29T08:51:59.511Z,9.60
2024-02-29T08:54:27.960Z,11.03
2024-02-29T08:56:56.089Z,11.50
2024-02-29T08:59:23.490Z,10.63
2024-02-29T09:01:50.799Z,18.47
2024-02-29T09:04:17.922Z,18.43
2024-02-29T09:06:45.116Z,11.97
2024-02-29T09:09:12.370Z,11.90
2024-02-29T09:11:39.573Z,11.23
2024-02-29T09:14:06.739Z,13.63
2024-02-29T09:16:33.862Z,17.83
2024-02-29T09:19:03.641Z,12.47
2024-02-29T09:21:31.207Z,15.97
2024-02-29T09:23:58.252Z,26.00
2024-02-29T09:26:26.609Z,17.03
2024-02-29T09:28:53.694Z,11.17
2024-02-29T09:31:21.309Z,12.50
2024-02-29T09:33:48.582Z,11.90
2024-02-29T09:36:16.004Z,13.87
2024-02-29T09:38:43.005Z,19.97
2024-02-29T09:41:25.452Z,11.47
2024-02-29T09:44:00.763Z,12.80
2024-02-29T09:46:27.839Z,12.10
2024-02-29T09:48:55.086Z,12.00
2024-02-29T09:51:23.153Z,13.97
2024-02-29T09:53:53.970Z,13.77
2024-02-29T09:56:25.188Z,12.13
2024-02-29T09:58:56.810Z,15.63
2024-02-29T10:01:23.967Z,21.13
2024-02-29T10:03:52.461Z,14.70
2024-02-29T10:06:20.425Z,12.10
2024-02-29T10:08:47.538Z,11.20
2024-02-29T10:11:14.869Z,9.13
2024-02-29T10:13:42.800Z,8.87
2024-02-29T10:16:11.236Z,7.67
2024-02-29T10:18:39.986Z,7.83
2024-02-29T10:21:15.767Z,12.73
2024-02-29T10:23:44.373Z,12.43
2024-02-29T10:26:11.591Z,9.17
2024-02-29T10:28:38.809Z,6.77
2024-02-29T10:31:06.077Z,10.50
2024-02-29T10:33:39.349Z,5.37
2024-02-29T10:36:14.895Z,8.17
2024-02-29T10:38:42.209Z,6.70
2024-02-29T10:41:11.819Z,6.53
2024-02-29T10:43:39.090Z,6.20
2024-02-29T10:46:07.644Z,9.53
2024-02-29T10:48:53.801Z,10.00
2024-02-29T10:51:46.351Z,7.00
2024-02-29T10:54:18.452Z,9.20
2024-02-29T10:56:50.548Z,9.60
2024-02-29T10:59:19.929Z,6.83
2024-02-29T11:01:48.684Z,6.97
2024-02-29T11:04:16.070Z,11.07
2024-02-29T11:06:48.812Z,6.73
2024-02-29T11:09:28.563Z,6.27
2024-02-29T11:12:16.999Z,8.40
2024-02-29T11:14:45.604Z,10.37
2024-02-29T11:17:16.110Z,9.90
2024-02-29T11:19:51.379Z,10.20
2024-02-29T11:22:35.636Z,6.23
2024-02-29T11:25:13.726Z,11.07
2024-02-29T11:27:54.716Z,6.43
2024-02-29T11:30:25.489Z,8.77
2024-02-29T11:32:53.229Z,6.67
2024-02-29T11:35:20.496Z,11.80
2024-02-29T11:37:48.239Z,8.40
2024-02-29T11:40:19.744Z,13.63
2024-02-29T11:42:47.127Z,5.23
2024-02-29T11:45:24.479Z,6.93
2024-02-29T11:47:51.834Z,4.00
2024-02-29T11:50:19.346Z,8.37
2024-02-29T11:52:46.441Z,3.93
2024-02-29T11:55:15.202Z,11.23
2024-02-29T11:57:43.844Z,7.73
2024-02-29T12:00:11.659Z,5.90
2024-02-29T12:02:40.511Z,4.97
2024-02-29T12:05:08.260Z,8.10
2024-02-29T12:07:35.375Z,7.30
2024-02-29T12:12:47.564Z,6.37
2024-02-29T12:15:15.240Z,5.80
2024-02-29T12:17:42.309Z,5.30
2024-02-29T12:20:11.420Z,5.43
2024-02-29T12:22:38.623Z,4.20
2024-02-29T12:25:15.029Z,6.40
2024-02-29T12:27:43.976Z,5.43
2024-02-29T12:30:14.572Z,6.80
2024-02-29T12:32:44.575Z,4.00
2024-02-29T12:35:13.571Z,4.27
2024-02-29T12:37:42.425Z,3.03
2024-02-29T12:40:12.824Z,3.43
2024-02-29T12:42:44.302Z,4.27
2024-02-29T12:45:12.839Z,3.23
2024-02-29T12:47:41.109Z,1.63
2024-02-29T12:50:12.192Z,2.33
2024-02-29T12:52:40.415Z,3.03
2024-02-29T12:55:08.617Z,2.73
2024-02-29T12:57:35.793Z,3.27
2024-02-29T13:00:03.031Z,3.63
2024-02-29T13:02:30.031Z,0.83
2024-02-29T13:04:57.022Z,1.43
2024-02-29T13:07:24.212Z,4.73
2024-02-29T13:09:53.023Z,0.80
2024-02-29T13:12:20.080Z,3.17
2024-02-29T13:14:47.112Z,2.50
2024-02-29T13:17:14.335Z,2.07
2024-02-29T13:19:41.610Z,1.10
2024-02-29T13:22:08.904Z,0.77
2024-02-29T13:24:36.041Z,2.73
2024-02-29T13:27:03.132Z,3.83
2024-02-29T13:29:31.317Z,0.63
2024-02-29T13:31:59.509Z,0.60
2024-02-29T13:34:27.637Z,0.90
2024-02-29T13:36:55.195Z,4.00
2024-02-29T13:39:22.319Z,1.17
2024-02-29T13:41:49.471Z,1.50
2024-02-29T13:44:16.554Z,0.90
2024-02-29T13:46:45.031Z,2.80
2024-02-29T13:49:21.415Z,1.70
2024-02-29T13:51:50.620Z,0.57
2024-02-29T13:54:17.725Z,4.83
2024-02-29T13:56:45.042Z,2.37
2024-02-29T13:59:12.217Z,0.90
2024-02-29T14:01:39.569Z,5.23
2024-02-29T14:04:06.964Z,1.05
2024-02-29T14:06:34.124Z,3.10
2024-02-29T14:09:01.183Z,3.30
2024-02-29T14:11:29.453Z,1.03
2024-02-29T14:13:56.733Z,2.57
2024-02-29T14:16:24.369Z,4.10
2024-02-29T14:18:51.527Z,3.80
2024-02-29T14:21:20.263Z,7.40
2024-02-29T14:23:47.394Z,2.20
2024-02-29T14:26:14.431Z,2.13
2024-02-29T14:28:41.821Z,3.73
2024-02-29T14:31:10.145Z,2.30
2024-02-29T14:33:39.043Z,3.30
2024-02-29T14:36:08.593Z,5.87
2024-02-29T14:38:35.728Z,3.03
2024-02-29T14:41:02.776Z,3.33
2024-02-29T14:43:30.894Z,5.57
2024-02-29T14:45:57.970Z,2.83
2024-02-29T14:48:25.601Z,5.57
2024-02-29T14:50:54.256Z,5.27
2024-02-29T14:53:21.372Z,6.00
2024-02-29T14:55:48.978Z,5.90
2024-02-29T14:58:16.106Z,3.30
2024-02-29T15:00:43.392Z,7.23
2024-02-29T15:03:10.505Z,3.67
2024-02-29T15:05:37.533Z,1.90
2024-02-29T15:08:06.795Z,5.53
2024-02-29T15:10:35.194Z,5.70
2024-02-29T15:13:02.459Z,4.23
2024-02-29T15:15:29.656Z,4.93
2024-02-29T15:17:56.814Z,4.07
2024-02-29T15:20:24.139Z,4.53
2024-02-29T15:22:51.180Z,2.00
2024-02-29T15:25:18.422Z,3.10
2024-02-29T15:27:54.656Z,2.67
2024-02-29T15:30:21.946Z,3.60
2024-02-29T15:32:49.235Z,2.53
2024-02-29T15:35:16.353Z,5.60
2024-02-29T15:37:43.535Z,5.97
2024-02-29T15:40:12.029Z,8.37
2024-02-29T15:42:39.771Z,4.43
2024-02-29T15:45:07.390Z,4.80
2024-02-29T15:47:34.551Z,2.43
2024-02-29T15:50:01.760Z,3.17
2024-02-29T15:52:28.889Z,6.60
2024-02-29T15:54:56.013Z,2.77
2024-02-29T15:57:23.171Z,5.27
2024-02-29T15:59:50.623Z,4.27
2024-02-29T16:02:17.706Z,3.03
2024-02-29T16:04:45.046Z,3.40
2024-02-29T16:07:12.131Z,4.07
2024-02-29T16:09:39.211Z,5.73
2024-02-29T16:12:07.525Z,6.33
2024-02-29T16:14:34.527Z,3.00
2024-02-29T16:17:03.371Z,4.70
2024-02-29T16:19:30.905Z,5.30
2024-02-29T16:21:58.728Z,9.30
2024-02-29T16:24:26.138Z,19.87
2024-02-29T16:26:55.975Z,15.90
2024-02-29T16:29:23.063Z,5.53
2024-02-29T16:31:50.127Z,2.23
2024-02-29T16:34:17.210Z,3.73
2024-02-29T16:36:45.157Z,6.43
2024-02-29T16:39:13.618Z,4.43
2024-02-29T16:41:40.746Z,2.67
2024-02-29T16:44:08.002Z,2.93
2024-02-29T16:46:35.369Z,4.77
2024-02-29T16:49:02.954Z,3.80
2024-02-29T16:51:29.967Z,6.17
2024-02-29T16:53:57.192Z,4.33
2024-02-29T16:56:26.131Z,5.20
2024-02-29T16:58:53.587Z,2.33
2024-02-29T17:01:20.871Z,7.10
2024-02-29T17:03:48.751Z,5.47
2024-02-29T17:06:16.289Z,4.63
2024-02-29T17:08:43.381Z,2.37
2024-02-29T17:11:10.535Z,1.93
2024-02-29T17:13:37.569Z,2.93
2024-02-29T17:16:05.381Z,4.20
2024-02-29T17:18:32.901Z,2.70
2024-02-29T17:20:59.966Z,3.40
2024-02-29T17:23:26.992Z,4.00
2024-02-29T17:25:54.088Z,2.77
2024-02-29T17:28:21.196Z,3.83
2024-02-29T17:30:48.343Z,1.90
2024-02-29T17:33:15.395Z,0.57
2024-02-29T17:35:43.609Z,2.40
2024-02-29T17:38:10.772Z,2.27
2024-02-29T17:40:37.903Z,4.27
2024-02-29T17:43:04.996Z,0.70
2024-02-29T17:45:32.312Z,4.30
2024-02-29T17:47:59.407Z,2.53
2024-02-29T17:50:27.094Z,5.03
2024-02-29T17:52:54.217Z,1.60
2024-02-29T17:55:21.313Z,0.80
2024-02-29T17:57:48.587Z,3.27
2024-02-29T18:00:16.501Z,2.20
2024-02-29T18:02:44.121Z,2.37
2024-02-29T18:05:12.810Z,0.93
2024-02-29T18:07:47.147Z,3.03
2024-02-29T18:10:22.298Z,1.80
2024-02-29T18:12:49.620Z,2.53
2024-02-29T18:15:16.871Z,2.53
2024-02-29T18:17:45.029Z,0.77
2024-02-29T18:20:15.782Z,2.77
2024-02-29T18:22:43.064Z,2.60
2024-02-29T18:25:10.330Z,2.00
2024-02-29T18:27:37.728Z,0.70
2024-02-29T18:30:08.584Z,1.40
2024-02-29T18:32:35.631Z,2.10
2024-02-29T18:35:02.809Z,2.50
2024-02-29T18:37:29.945Z,1.60
2024-02-29T18:39:57.030Z,6.10
2024-02-29T18:42:24.304Z,0.37
2024-02-29T18:44:51.291Z,0.60
2024-02-29T18:47:18.636Z,0.67
2024-02-29T18:49:45.649Z,2.40
2024-02-29T18:52:13.701Z,0.97
2024-02-29T18:54:45.654Z,1.30
2024-02-29T18:57:12.856Z,1.30
2024-02-29T18:59:40.087Z,1.47
2024-02-29T19:02:08.516Z,2.07
2024-02-29T19:04:35.772Z,0.67
2024-02-29T19:07:03.437Z,0.20
2024-02-29T19:09:32.931Z,1.20
2024-02-29T19:12:00.045Z,4.90
2024-02-29T19:14:27.099Z,0.77
2024-02-29T19:16:54.128Z,1.47
2024-02-29T19:19:21.170Z,3.30
2024-02-29T19:21:49.530Z,2.07
2024-02-29T19:24:16.752Z,1.07
2024-02-29T19:26:44.723Z,2.53
2024-02-29T19:29:12.421Z,0.67
2024-02-29T19:31:40.132Z,2.40
2024-02-29T19:34:07.675Z,1.90
2024-02-29T19:36:34.848Z,1.60
2024-02-29T19:39:01.827Z,1.10
2024-02-29T19:41:28.967Z,0.90
2024-02-29T19:43:56.072Z,2.80
2024-02-29T19:46:23.130Z,0.43
2024-02-29T19:48:50.339Z,1.63
2024-02-29T19:51:17.428Z,0.70
2024-02-29T19:53:45.319Z,1.60
2024-02-29T19:56:12.566Z,1.03
2024-02-29T19:58:39.735Z,0.40
2024-02-29T20:01:07.870Z,0.63
2024-02-29T20:03:35.010Z,4.43
2024-02-29T20:06:02.042Z,0.57
2024-02-29T20:08:29.290Z,0.67
2024-02-29T20:10:56.707Z,1.33
2024-02-29T20:13:25.885Z,0.63
2024-02-29T20:15:53.107Z,0.70
2024-02-29T20:18:24.302Z,0.87
2024-02-29T20:20:51.487Z,1.27
2024-02-29T20:23:19.616Z,1.87
2024-02-29T20:25:47.504Z,1.13
2024-02-29T20:28:14.894Z,0.57
2024-02-29T20:30:41.993Z,2.90
2024-02-29T20:33:09.129Z,0.70
2024-02-29T20:35:36.310Z,2.70
2024-02-29T20:38:03.410Z,1.63
2024-02-29T20:40:30.649Z,1.73
2024-02-29T20:42:58.018Z,1.27
2024-02-29T20:45:25.976Z,2.63
2024-02-29T20:47:53.112Z,6.70
2024-02-29T20:50:21.389Z,2.50
2024-02-29T20:52:48.410Z,6.23
2024-02-29T20:55:15.686Z,4.00
2024-02-29T20:57:42.807Z,1.00
2024-02-29T21:00:10.777Z,0.77
2024-02-29T21:02:38.261Z,1.37
2024-02-29T21:05:05.878Z,1.40
2024-02-29T21:07:33.981Z,3.07
2024-02-29T21:10:02.079Z,1.63
2024-02-29T21:12:29.361Z,1.60
2024-02-29T21:14:56.486Z,1.17
2024-02-29T21:17:23.588Z,2.77
2024-02-29T21:19:50.722Z,2.80
2024-02-29T21:22:17.840Z,4.20
2024-02-29T21:24:45.547Z,3.83
2024-02-29T21:27:12.695Z,5.27
2024-02-29T21:29:42.080Z,7.60
2024-02-29T21:32:10.367Z,3.07
2024-02-29T21:34:37.518Z,4.03
2024-02-29T21:37:04.718Z,1.83
2024-02-29T21:39:36.679Z,1.60
2024-02-29T21:42:10.969Z,4.93
2024-02-29T21:44:38.267Z,2.17
2024-02-29T21:47:05.372Z,4.37
2024-02-29T21:49:32.536Z,2.20
2024-02-29T21:51:59.808Z,2.47
2024-02-29T21:54:27.080Z,7.23
2024-02-29T21:56:54.166Z,1.33
2024-02-29T21:59:21.193Z,3.33
2024-02-29T22:01:49.872Z,4.80
2024-02-29T22:04:17.241Z,1.90
2024-02-29T22:06:44.529Z,3.53
2024-02-29T22:09:12.013Z,1.70
2024-02-29T22:11:39.153Z,3.33
2024-02-29T22:14:06.513Z,2.00
2024-02-29T22:16:34.140Z,1.03
2024-02-29T22:19:02.006Z,2.60
2024-02-29T22:21:30.143Z,1.40
2024-02-29T22:23:58.704Z,2.47
2024-02-29T22:26:25.839Z,3.90
2024-02-29T22:28:53.195Z,2.97
2024-02-29T22:31:20.498Z,2.13
2024-02-29T22:33:47.641Z,2.07
2024-02-29T22:36:14.910Z,2.80
2024-02-29T22:38:41.974Z,1.90
2024-02-29T22:41:09.256Z,3.07
2024-02-29T22:43:36.634Z,0.63
2024-02-29T22:46:03.820Z,2.03
2024-02-29T22:48:30.844Z,1.80
2024-02-29T22:50:58.051Z,2.50
2024-02-29T22:53:25.046Z,1.30
2024-02-29T22:55:52.233Z,0.73
2024-02-29T22:58:22.789Z,2.40
2024-02-29T23:03:22.369Z,4.17
2024-02-29T23:05:49.713Z,1.63
2024-02-29T23:08:17.338Z,0.93
2024-02-29T23:10:44.481Z,2.00
2024-02-29T23:13:11.786Z,3.27
2024-02-29T23:15:39.382Z,3.23
2024-02-29T23:18:07.702Z,2.40
2024-02-29T23:20:35.385Z,1.10
2024-02-29T23:23:02.491Z,3.40
2024-02-29T23:25:30.506Z,2.73
2024-02-29T23:27:57.757Z,0.83
2024-02-29T23:30:25.080Z,4.27
2024-02-29T23:32:52.282Z,1.00
2024-02-29T23:35:19.554Z,1.57
2024-02-29T23:37:46.687Z,2.23
2024-02-29T23:40:16.884Z,3.33
2024-02-29T23:42:44.571Z,0.83
2024-02-29T23:45:11.981Z,1.73
2024-02-29T23:47:39.155Z,4.27
2024-02-29T23:50:07.535Z,3.80
2024-02-29T23:52:34.744Z,3.20
2024-02-29T23:55:01.879Z,6.87
2024-02-29T23:57:29.048Z,3.03
2024-02-29T23:59:56.070Z,3.83
